createdAt,value
2018-12-14T00:01:55.386Z,47.07
2018-12-14T00:04:23.818Z,48.10
2018-12-14T00:06:51.495Z,40.77
2018-12-14T00:09:19.225Z,46.20
2018-12-14T00:11:46.901Z,48.73
2018-12-14T00:14:14.636Z,51.73
2018-12-14T00:16:42.395Z,52.73
2018-12-14T00:19:10.116Z,56.63
2018-12-14T00:21:37.875Z,55.20
2018-12-14T00:24:05.618Z,51.17
2018-12-14T00:26:33.372Z,42.77
2018-12-14T00:29:01.103Z,50.03
2018-12-14T00:31:28.811Z,46.07
2018-12-14T00:33:56.512Z,52.80
2018-12-14T00:36:24.242Z,41.87
2018-12-14T00:38:51.982Z,49.23
2018-12-14T00:41:19.732Z,49.17
2018-12-14T00:43:47.451Z,45.67
2018-12-14T00:46:15.155Z,41.80
2018-12-14T00:48:42.932Z,43.63
2018-12-14T00:51:10.626Z,49.97
2018-12-14T00:53:38.363Z,45.33
2018-12-14T00:56:06.116Z,51.20
2018-12-14T00:58:33.795Z,47.37
2018-12-14T01:01:01.527Z,35.63
2018-12-14T01:03:29.262Z,48.90
2018-12-14T01:05:56.963Z,41.37
2018-12-14T01:08:24.726Z,46.80
2018-12-14T01:10:52.438Z,50.23
2018-12-14T01:13:20.245Z,48.47
2018-12-14T01:15:48.023Z,45.13
2018-12-14T01:18:16.669Z,48.40
2018-12-14T01:20:44.390Z,44.93
2018-12-14T01:23:12.143Z,48.17
2018-12-14T01:25:40.016Z,43.40
2018-12-14T01:28:07.783Z,40.40
2018-12-14T01:30:35.531Z,43.27
2018-12-14T01:33:03.219Z,42.23
2018-12-14T01:35:30.969Z,42.83
2018-12-14T01:37:58.670Z,41.97
2018-12-14T01:40:26.430Z,38.77
2018-12-14T01:42:54.171Z,40.90
2018-12-14T01:45:21.917Z,39.00
2018-12-14T01:47:49.656Z,38.77
2018-12-14T01:50:17.364Z,40.37
2018-12-14T01:52:45.225Z,38.30
2018-12-14T01:55:12.916Z,35.40
2018-12-14T01:57:41.499Z,38.67
2018-12-14T02:00:09.588Z,36.13
2018-12-14T02:02:37.346Z,37.83
2018-12-14T02:05:05.559Z,37.50
2018-12-14T02:07:33.309Z,33.53
2018-12-14T02:10:01.065Z,33.90
2018-12-14T02:12:28.805Z,35.13
2018-12-14T02:14:56.496Z,30.67
2018-12-14T02:17:24.246Z,38.30
2018-12-14T02:19:52.102Z,34.53
2018-12-14T02:22:19.869Z,33.17
2018-12-14T02:24:47.570Z,43.33
2018-12-14T02:27:15.295Z,31.63
2018-12-14T02:29:43.044Z,32.60
2018-12-14T02:32:11.264Z,39.07
2018-12-14T02:34:39.396Z,33.07
2018-12-14T02:37:07.109Z,36.03
2018-12-14T02:39:34.874Z,33.00
2018-12-14T02:42:02.610Z,32.83
2018-12-14T02:44:31.397Z,36.90
2018-12-14T02:46:59.267Z,40.70
2018-12-14T02:49:27.052Z,32.37
2018-12-14T02:51:54.759Z,39.03
2018-12-14T02:54:22.488Z,40.30
2018-12-14T02:56:50.211Z,35.43
2018-12-14T02:59:17.957Z,38.57
2018-12-14T03:01:45.731Z,38.70
2018-12-14T03:04:13.469Z,37.73
2018-12-14T03:06:41.224Z,37.17
2018-12-14T03:09:09.102Z,38.83
2018-12-14T03:11:36.843Z,40.00
2018-12-14T03:14:04.599Z,33.30
2018-12-14T03:16:32.360Z,33.70
2018-12-14T03:19:00.065Z,41.93
2018-12-14T03:21:27.825Z,39.20
2018-12-14T03:23:55.535Z,40.37
2018-12-14T03:26:23.275Z,40.80
2018-12-14T03:28:51.027Z,41.20
2018-12-14T03:31:21.935Z,42.30
2018-12-14T03:33:49.663Z,41.90
2018-12-14T03:36:17.391Z,44.43
2018-12-14T03:38:45.166Z,48.13
2018-12-14T03:41:12.951Z,40.80
2018-12-14T03:43:40.696Z,46.27
2018-12-14T03:46:08.391Z,49.80
2018-12-14T03:48:36.143Z,37.97
2018-12-14T03:51:03.850Z,35.97
2018-12-14T03:53:31.575Z,49.07
2018-12-14T03:55:59.249Z,40.10
2018-12-14T03:58:26.974Z,39.67
2018-12-14T04:00:54.856Z,40.30
2018-12-14T04:03:22.566Z,42.67
2018-12-14T04:05:50.294Z,35.50
2018-12-14T04:08:17.999Z,46.10
2018-12-14T04:10:45.766Z,48.20
2018-12-14T04:13:13.485Z,41.87
2018-12-14T04:15:41.272Z,46.47
2018-12-14T04:18:08.990Z,42.70
2018-12-14T04:20:36.749Z,43.73
2018-12-14T04:23:04.515Z,49.53
2018-12-14T04:25:32.351Z,36.30
2018-12-14T04:28:00.145Z,46.30
2018-12-14T04:30:27.914Z,40.67
2018-12-14T04:32:56.869Z,39.40
2018-12-14T04:35:24.845Z,44.17
2018-12-14T04:37:52.521Z,46.43
2018-12-14T04:40:20.275Z,43.17
2018-12-14T04:42:49.000Z,36.77
2018-12-14T04:45:17.060Z,40.23
2018-12-14T04:47:44.771Z,39.53
2018-12-14T04:50:12.502Z,38.70
2018-12-14T04:52:40.253Z,42.53
2018-12-14T04:55:08.146Z,38.80
2018-12-14T04:57:35.831Z,36.70
2018-12-14T05:00:05.753Z,42.97
2018-12-14T05:02:33.514Z,43.13
2018-12-14T05:05:01.222Z,42.33
2018-12-14T05:07:28.994Z,41.87
2018-12-14T05:09:56.701Z,38.17
2018-12-14T05:12:24.430Z,36.23
2018-12-14T05:14:52.391Z,48.17
2018-12-14T05:17:20.381Z,45.30
2018-12-14T05:19:48.130Z,46.93
2018-12-14T05:22:15.863Z,60.43
2018-12-14T05:24:43.536Z,53.70
2018-12-14T05:27:11.546Z,51.60
2018-12-14T05:29:39.387Z,49.10
2018-12-14T05:32:07.156Z,82.93
2018-12-14T05:34:34.893Z,81.83
2018-12-14T05:37:02.668Z,62.80
2018-12-14T05:39:30.420Z,93.33
2018-12-14T05:41:58.137Z,53.37
2018-12-14T05:44:25.910Z,60.87
2018-12-14T05:46:53.611Z,70.97
2018-12-14T05:49:21.356Z,44.03
2018-12-14T05:51:49.088Z,62.30
2018-12-14T05:54:16.840Z,132.73
2018-12-14T05:56:44.753Z,52.07
2018-12-14T05:59:12.536Z,210.83
2018-12-14T06:01:40.319Z,58.30
2018-12-14T06:04:08.106Z,111.37
2018-12-14T06:06:36.025Z,141.40
2018-12-14T06:09:04.833Z,148.10
2018-12-14T06:11:32.519Z,59.30
2018-12-14T06:14:00.416Z,169.00
2018-12-14T06:16:28.166Z,166.33
2018-12-14T06:18:55.969Z,76.47
2018-12-14T06:21:23.707Z,109.13
2018-12-14T06:23:51.457Z,144.97
2018-12-14T06:26:19.211Z,92.77
2018-12-14T06:28:46.965Z,136.93
2018-12-14T06:31:14.738Z,108.93
2018-12-14T06:33:42.758Z,56.53
2018-12-14T06:36:10.514Z,59.00
2018-12-14T06:38:38.194Z,60.50
2018-12-14T06:41:05.947Z,68.77
2018-12-14T06:43:33.647Z,59.50
2018-12-14T06:46:01.385Z,55.40
2018-12-14T06:48:29.128Z,59.23
2018-12-14T06:50:57.122Z,56.20
2018-12-14T06:53:24.883Z,51.03
2018-12-14T06:55:52.611Z,61.33
2018-12-14T06:58:20.312Z,52.10
2018-12-14T07:00:48.035Z,56.17
2018-12-14T07:03:15.736Z,57.50
2018-12-14T07:05:43.478Z,55.10
2018-12-14T07:08:11.274Z,53.10
2018-12-14T07:10:39.006Z,45.70
2018-12-14T07:13:06.769Z,46.60
2018-12-14T07:15:34.521Z,51.00
2018-12-14T07:18:02.226Z,45.37
2018-12-14T07:20:30.102Z,45.77
2018-12-14T07:22:57.786Z,40.23
2018-12-14T07:25:25.534Z,49.73
2018-12-14T07:27:53.259Z,48.33
2018-12-14T07:30:21.009Z,46.60
2018-12-14T07:32:48.766Z,46.77
2018-12-14T07:35:16.445Z,47.80
2018-12-14T07:37:44.201Z,48.93
2018-12-14T07:40:11.924Z,47.67
2018-12-14T07:42:39.662Z,48.37
2018-12-14T07:45:07.552Z,45.33
2018-12-14T07:47:35.349Z,50.00
2018-12-14T07:50:03.737Z,46.30
2018-12-14T07:52:31.459Z,55.37
2018-12-14T07:54:59.176Z,49.23
2018-12-14T07:57:26.926Z,49.93
2018-12-14T07:59:54.646Z,57.93
2018-12-14T08:02:22.351Z,55.13
2018-12-14T08:04:50.075Z,57.60
2018-12-14T08:07:17.812Z,56.80
2018-12-14T08:09:45.583Z,54.93
2018-12-14T08:12:13.366Z,60.23
2018-12-14T08:14:41.107Z,56.33
2018-12-14T08:17:08.825Z,55.93
2018-12-14T08:19:41.926Z,60.50
2018-12-14T08:22:09.674Z,56.43
2018-12-14T08:24:37.375Z,44.60
2018-12-14T08:27:05.085Z,61.27
2018-12-14T08:29:32.855Z,59.43
2018-12-14T08:32:00.620Z,57.63
2018-12-14T08:34:28.305Z,61.43
2018-12-14T08:36:55.988Z,66.73
2018-12-14T08:39:23.729Z,60.87
2018-12-14T08:41:51.465Z,59.03
2018-12-14T08:44:19.343Z,65.47
2018-12-14T08:46:47.057Z,58.23
2018-12-14T08:49:14.778Z,60.37
2018-12-14T08:51:42.510Z,51.27
2018-12-14T08:54:10.217Z,62.90
2018-12-14T08:56:37.985Z,59.33
2018-12-14T08:59:05.685Z,59.67
2018-12-14T09:01:33.435Z,68.50
2018-12-14T09:04:01.123Z,57.00
2018-12-14T09:06:28.880Z,62.93
2018-12-14T09:08:56.592Z,55.17
2018-12-14T09:11:24.350Z,55.90
2018-12-14T09:13:52.054Z,51.20
2018-12-14T09:16:19.755Z,47.17
2018-12-14T09:18:47.504Z,47.20
2018-12-14T09:21:15.263Z,46.90
2018-12-14T09:23:42.974Z,46.23
2018-12-14T09:26:10.789Z,44.77
2018-12-14T09:28:38.747Z,46.80
2018-12-14T09:31:06.484Z,46.53
2018-12-14T09:33:34.175Z,35.27
2018-12-14T09:36:01.915Z,43.40
2018-12-14T09:38:29.598Z,37.97
2018-12-14T09:40:57.334Z,36.60
2018-12-14T09:43:25.074Z,32.97
2018-12-14T09:45:52.743Z,34.10
2018-12-14T09:48:20.495Z,32.33
2018-12-14T09:50:48.192Z,35.37
2018-12-14T09:53:15.953Z,37.03
2018-12-14T09:55:43.675Z,41.13
2018-12-14T09:58:11.424Z,38.00
2018-12-14T10:00:39.212Z,36.70
2018-12-14T10:03:06.902Z,41.33
2018-12-14T10:05:34.663Z,39.83
2018-12-14T10:08:02.414Z,36.37
2018-12-14T10:10:30.192Z,32.73
2018-12-14T10:12:57.936Z,38.60
2018-12-14T10:15:25.650Z,34.10
2018-12-14T10:17:53.355Z,30.17
2018-12-14T10:20:21.033Z,35.60
2018-12-14T10:22:48.775Z,33.50
2018-12-14T10:25:16.486Z,33.53
2018-12-14T10:27:44.194Z,33.03
2018-12-14T10:30:11.955Z,32.83
2018-12-14T10:32:39.647Z,36.77
2018-12-14T10:35:09.629Z,37.60
2018-12-14T10:37:37.614Z,32.20
2018-12-14T10:40:10.554Z,29.20
2018-12-14T10:42:38.307Z,32.57
2018-12-14T10:45:06.979Z,31.60
2018-12-14T10:47:34.757Z,36.43
2018-12-14T10:50:02.526Z,33.60
2018-12-14T10:52:30.214Z,32.90
2018-12-14T10:54:58.013Z,33.60
2018-12-14T10:57:25.699Z,37.20
2018-12-14T10:59:53.487Z,38.27
2018-12-14T11:02:21.230Z,42.07
2018-12-14T11:04:48.961Z,37.60
2018-12-14T11:07:16.690Z,39.13
2018-12-14T11:09:44.470Z,35.77
2018-12-14T11:12:12.242Z,34.13
2018-12-14T11:14:39.917Z,43.23
2018-12-14T11:17:07.679Z,38.77
2018-12-14T11:19:35.434Z,34.70
2018-12-14T11:22:03.114Z,38.07
2018-12-14T11:24:30.861Z,36.57
2018-12-14T11:26:58.564Z,36.80
2018-12-14T11:29:26.279Z,36.17
2018-12-14T11:31:53.966Z,34.77
2018-12-14T11:34:21.683Z,37.27
2018-12-14T11:36:49.350Z,41.93
2018-12-14T11:39:17.070Z,38.20
2018-12-14T11:41:44.801Z,37.70
2018-12-14T11:44:12.518Z,36.20
2018-12-14T11:46:40.220Z,42.07
2018-12-14T11:49:07.948Z,43.23
2018-12-14T11:51:35.715Z,43.70
2018-12-14T11:54:03.479Z,43.17
2018-12-14T11:56:31.191Z,43.67
2018-12-14T11:58:58.922Z,42.70
2018-12-14T12:01:28.320Z,43.57
2018-12-14T12:03:56.162Z,44.07
2018-12-14T12:06:23.863Z,42.57
2018-12-14T12:08:51.600Z,45.53
2018-12-14T12:11:19.331Z,47.40
2018-12-14T12:13:47.054Z,43.67
2018-12-14T12:16:14.760Z,44.70
2018-12-14T12:18:42.450Z,43.20
2018-12-14T12:21:10.206Z,45.20
2018-12-14T12:23:37.910Z,45.77
2018-12-14T12:26:05.651Z,46.37
2018-12-14T12:28:34.138Z,50.73
2018-12-14T12:31:01.879Z,50.53
2018-12-14T12:33:29.601Z,50.80
2018-12-14T12:35:57.374Z,52.70
2018-12-14T12:38:25.107Z,47.93
2018-12-14T12:40:52.847Z,49.97
2018-12-14T12:43:20.568Z,51.70
2018-12-14T12:45:48.329Z,57.97
2018-12-14T12:48:16.073Z,48.87
2018-12-14T12:50:43.804Z,55.70
2018-12-14T12:53:11.517Z,59.40
2018-12-14T12:55:39.252Z,57.60
2018-12-14T12:58:06.979Z,51.53
2018-12-14T13:00:34.843Z,59.10
2018-12-14T13:03:02.532Z,56.33
2018-12-14T13:05:34.853Z,59.40
2018-12-14T13:08:00.027Z,56.60
2018-12-14T13:10:27.744Z,65.80
2018-12-14T13:12:55.494Z,60.57
2018-12-14T13:15:23.196Z,51.93
2018-12-14T13:17:50.894Z,56.07
2018-12-14T13:20:18.680Z,60.80
2018-12-14T13:22:46.446Z,56.33
2018-12-14T13:25:14.159Z,50.03
2018-12-14T13:27:41.927Z,46.70
2018-12-14T13:30:09.644Z,52.13
2018-12-14T13:32:37.408Z,52.60
2018-12-14T13:35:06.453Z,53.20
2018-12-14T13:37:34.163Z,51.63
2018-12-14T13:40:01.930Z,49.60
2018-12-14T13:42:29.748Z,54.80
2018-12-14T13:44:57.521Z,56.30
2018-12-14T13:47:25.302Z,48.40
2018-12-14T13:49:53.058Z,46.97
2018-12-14T13:52:20.808Z,46.40
2018-12-14T13:54:48.506Z,45.03
2018-12-14T13:57:16.271Z,40.43
2018-12-14T13:59:43.974Z,45.27
2018-12-14T14:02:11.751Z,46.47
2018-12-14T14:04:39.453Z,43.67
2018-12-14T14:07:07.183Z,47.83
2018-12-14T14:09:34.987Z,49.43
2018-12-14T14:12:02.704Z,37.93
2018-12-14T14:14:30.459Z,40.07
2018-12-14T14:16:58.453Z,43.70
2018-12-14T14:19:26.399Z,40.73
2018-12-14T14:21:54.139Z,43.10
2018-12-14T14:24:21.899Z,42.53
2018-12-14T14:26:49.600Z,40.03
2018-12-14T14:29:17.283Z,36.97
2018-12-14T14:31:44.997Z,40.23
2018-12-14T14:34:12.681Z,46.43
2018-12-14T14:36:40.428Z,45.23
2018-12-14T14:39:08.130Z,47.53
2018-12-14T14:41:35.902Z,47.00
2018-12-14T14:44:03.588Z,46.00
2018-12-14T14:46:31.264Z,49.20
2018-12-14T14:48:59.020Z,44.93
2018-12-14T14:51:26.883Z,47.17
2018-12-14T14:53:54.545Z,44.23
2018-12-14T14:56:22.299Z,44.43
2018-12-14T14:58:50.064Z,45.60
2018-12-14T15:01:17.765Z,43.50
2018-12-14T15:03:45.515Z,46.60
2018-12-14T15:06:15.562Z,46.53
2018-12-14T15:08:43.330Z,51.43
2018-12-14T15:11:11.053Z,46.93
2018-12-14T15:13:38.796Z,46.50
2018-12-14T15:16:06.482Z,53.20
2018-12-14T15:18:34.248Z,46.73
2018-12-14T15:21:01.939Z,51.87
2018-12-14T15:23:29.627Z,55.33
2018-12-14T15:25:57.295Z,46.47
2018-12-14T15:28:25.035Z,52.67
2018-12-14T15:30:52.763Z,47.27
2018-12-14T15:33:20.511Z,50.60
2018-12-14T15:35:48.388Z,50.50
2018-12-14T15:38:16.139Z,50.17
2018-12-14T15:40:43.816Z,41.17
2018-12-14T15:43:11.552Z,48.40
2018-12-14T15:45:39.278Z,46.43
2018-12-14T15:48:07.521Z,49.80
2018-12-14T15:50:35.328Z,49.37
2018-12-14T15:53:06.222Z,44.53
2018-12-14T15:55:34.362Z,49.10
2018-12-14T15:58:02.165Z,45.07
2018-12-14T16:00:29.962Z,47.07
2018-12-14T16:02:57.687Z,55.53
2018-12-14T16:05:25.528Z,48.27
2018-12-14T16:07:53.285Z,54.97
2018-12-14T16:10:21.086Z,47.83
2018-12-14T16:12:48.855Z,55.67
2018-12-14T16:15:20.072Z,55.80
2018-12-14T16:17:46.362Z,49.27
2018-12-14T16:20:14.187Z,48.93
2018-12-14T16:22:41.955Z,57.93
2018-12-14T16:25:09.823Z,70.53
2018-12-14T16:27:37.985Z,53.87
2018-12-14T16:30:07.527Z,61.57
2018-12-14T16:32:35.313Z,60.77
2018-12-14T16:35:03.309Z,52.90
2018-12-14T16:37:31.248Z,54.87
2018-12-14T16:40:04.311Z,53.70
2018-12-14T16:42:32.133Z,50.67
2018-12-14T16:44:59.965Z,54.20
2018-12-14T16:47:27.825Z,45.37
2018-12-14T16:49:55.616Z,47.20
2018-12-14T16:52:23.454Z,52.43
2018-12-14T16:54:51.278Z,52.93
2018-12-14T16:57:19.206Z,52.63
2018-12-14T16:59:47.028Z,61.83
2018-12-14T17:02:14.788Z,56.87
2018-12-14T17:04:42.659Z,57.17
2018-12-14T17:07:10.509Z,55.40
2018-12-14T17:09:38.352Z,56.90
2018-12-14T17:12:06.206Z,56.17
2018-12-14T17:14:34.028Z,57.63
2018-12-14T17:17:01.811Z,54.17
2018-12-14T17:19:29.635Z,55.30
2018-12-14T17:21:57.378Z,49.97
2018-12-14T17:24:25.175Z,54.43
2018-12-14T17:26:56.311Z,51.40
2018-12-14T17:29:24.158Z,53.53
2018-12-14T17:31:52.097Z,49.00
2018-12-14T17:34:19.989Z,47.77
2018-12-14T17:36:47.889Z,51.30
2018-12-14T17:39:15.721Z,52.53
2018-12-14T17:41:43.630Z,46.70
2018-12-14T17:44:11.494Z,51.67
2018-12-14T17:46:39.510Z,48.97
2018-12-14T17:49:07.374Z,46.33
2018-12-14T17:51:35.362Z,41.13
2018-12-14T17:54:03.206Z,39.63
2018-12-14T17:56:32.424Z,37.07
2018-12-14T17:59:00.248Z,41.63
2018-12-14T18:01:28.089Z,43.50
2018-12-14T18:03:57.094Z,41.60
2018-12-14T18:06:25.142Z,40.17
2018-12-14T18:08:52.990Z,43.43
2018-12-14T18:11:20.829Z,40.27
2018-12-14T18:13:48.633Z,41.43
2018-12-14T18:16:16.769Z,33.37
2018-12-14T18:18:44.585Z,38.67
2018-12-14T18:21:12.450Z,37.70
2018-12-14T18:23:40.288Z,43.83
2018-12-14T18:26:08.105Z,34.37
2018-12-14T18:28:35.942Z,35.43
2018-12-14T18:31:03.784Z,35.73
2018-12-14T18:33:31.834Z,38.20
2018-12-14T18:35:59.824Z,33.60
2018-12-14T18:38:27.819Z,31.27
2018-12-14T18:40:55.695Z,36.50
2018-12-14T18:43:23.507Z,34.93
2018-12-14T18:45:53.292Z,35.83
2018-12-14T18:48:21.397Z,38.47
2018-12-14T18:50:49.218Z,36.23
2018-12-14T18:53:17.148Z,41.70
2018-12-14T18:55:45.118Z,36.63
2018-12-14T18:58:12.928Z,37.70
2018-12-14T19:00:40.847Z,36.77
2018-12-14T19:03:08.840Z,40.07
2018-12-14T19:05:36.791Z,34.37
2018-12-14T19:08:04.653Z,35.83
2018-12-14T19:10:32.613Z,35.63
2018-12-14T19:13:00.518Z,38.33
2018-12-14T19:15:28.436Z,30.80
2018-12-14T19:17:56.276Z,32.07
2018-12-14T19:20:24.173Z,35.13
2018-12-14T19:22:51.970Z,31.23
2018-12-14T19:25:19.844Z,34.00
2018-12-14T19:27:47.674Z,32.57
2018-12-14T19:30:15.559Z,34.23
2018-12-14T19:32:43.413Z,35.17
2018-12-14T19:35:11.279Z,29.50
2018-12-14T19:37:39.986Z,33.93
2018-12-14T19:40:09.355Z,33.57
2018-12-14T19:42:37.243Z,33.23
2018-12-14T19:45:07.580Z,34.33
2018-12-14T19:47:35.643Z,32.23
2018-12-14T19:50:05.882Z,31.60
2018-12-14T19:52:33.821Z,33.83
2018-12-14T19:55:01.683Z,33.10
2018-12-14T19:57:29.618Z,31.57
2018-12-14T19:59:57.472Z,32.60
2018-12-14T20:02:25.375Z,33.60
2018-12-14T20:04:53.212Z,34.03
2018-12-14T20:07:21.078Z,31.93
2018-12-14T20:09:49.009Z,36.63
2018-12-14T20:12:16.876Z,33.07
2018-12-14T20:14:44.799Z,33.07
2018-12-14T20:17:12.693Z,34.17
2018-12-14T20:19:40.658Z,34.57
2018-12-14T20:22:08.585Z,36.47
2018-12-14T20:24:36.536Z,33.40
2018-12-14T20:27:04.514Z,37.90
2018-12-14T20:29:32.400Z,40.93
2018-12-14T20:32:00.364Z,36.97
2018-12-14T20:34:28.333Z,37.23
2018-12-14T20:36:56.216Z,42.33
2018-12-14T20:39:24.170Z,37.17
2018-12-14T20:41:52.173Z,43.40
2018-12-14T20:44:20.076Z,36.30
2018-12-14T20:46:47.960Z,37.07
2018-12-14T20:49:15.960Z,38.20
2018-12-14T20:51:43.832Z,57.57
2018-12-14T20:54:11.670Z,37.73
2018-12-14T20:56:39.640Z,44.87
2018-12-14T20:59:07.522Z,37.37
2018-12-14T21:01:35.465Z,42.13
2018-12-14T21:04:03.373Z,40.07
2018-12-14T21:06:31.989Z,42.07
2018-12-14T21:08:59.828Z,42.67
2018-12-14T21:11:27.662Z,44.93
2018-12-14T21:13:55.544Z,39.80
2018-12-14T21:16:26.094Z,40.37
2018-12-14T21:18:53.352Z,41.37
2018-12-14T21:21:21.197Z,40.40
2018-12-14T21:23:49.060Z,39.00
2018-12-14T21:26:16.927Z,42.77
2018-12-14T21:28:44.808Z,46.23
2018-12-14T21:31:12.702Z,42.23
2018-12-14T21:33:40.529Z,45.40
2018-12-14T21:36:08.315Z,47.50
2018-12-14T21:38:36.095Z,47.20
2018-12-14T21:41:03.898Z,47.77
2018-12-14T21:43:31.727Z,44.23
2018-12-14T21:45:59.486Z,43.13
2018-12-14T21:48:28.711Z,45.60
2018-12-14T21:50:56.473Z,48.40
2018-12-14T21:53:24.288Z,43.53
2018-12-14T21:55:52.037Z,44.47
2018-12-14T21:58:19.793Z,51.70
2018-12-14T22:00:47.537Z,50.10
2018-12-14T22:03:15.282Z,49.60
2018-12-14T22:05:43.037Z,51.13
2018-12-14T22:08:10.795Z,49.13
2018-12-14T22:10:38.475Z,48.30
2018-12-14T22:13:06.204Z,51.70
2018-12-14T22:15:33.967Z,53.50
2018-12-14T22:18:01.676Z,50.43
2018-12-14T22:20:29.384Z,44.73
2018-12-14T22:22:57.106Z,50.33
2018-12-14T22:25:24.849Z,52.00
2018-12-14T22:27:52.595Z,51.93
2018-12-14T22:30:20.375Z,52.77
2018-12-14T22:32:48.123Z,54.97
2018-12-14T22:35:15.829Z,53.33
2018-12-14T22:37:43.588Z,52.73
2018-12-14T22:40:11.327Z,58.57
2018-12-14T22:42:39.044Z,51.13
2018-12-14T22:45:06.935Z,56.57
2018-12-14T22:47:34.609Z,53.47
2018-12-14T22:50:02.313Z,53.67
2018-12-14T22:52:30.010Z,51.23
2018-12-14T22:54:57.770Z,48.77
2018-12-14T22:57:25.455Z,50.53
2018-12-14T22:59:53.177Z,55.23
2018-12-14T23:02:20.883Z,57.50
2018-12-14T23:04:48.624Z,54.70
2018-12-14T23:07:16.280Z,52.60
2018-12-14T23:09:43.955Z,54.67
2018-12-14T23:12:11.715Z,50.63
2018-12-14T23:14:39.447Z,56.40
2018-12-14T23:17:07.122Z,58.60
2018-12-14T23:19:34.794Z,63.80
2018-12-14T23:22:02.519Z,53.27
2018-12-14T23:24:30.250Z,55.03
2018-12-14T23:26:57.983Z,60.07
2018-12-14T23:29:25.724Z,60.40
2018-12-14T23:31:53.440Z,57.77
2018-12-14T23:34:21.133Z,56.70
2018-12-14T23:36:48.889Z,59.83
2018-12-14T23:39:16.591Z,57.40
2018-12-14T23:41:44.277Z,60.80
2018-12-14T23:44:11.999Z,59.93
2018-12-14T23:46:39.772Z,60.20
2018-12-14T23:49:07.498Z,53.63
2018-12-14T23:51:35.216Z,59.40
2018-12-14T23:54:02.907Z,57.87
2018-12-14T23:56:30.640Z,54.50
2018-12-14T23:58:58.377Z,55.83
